createdAt,value
2023-05-15T00:01:56.850Z,2.00
2023-05-15T00:04:23.918Z,2.00
2023-05-15T00:06:51.280Z,2.20
2023-05-15T00:09:18.095Z,2.60
2023-05-15T00:11:44.866Z,2.50
2023-05-15T00:14:11.659Z,2.50
2023-05-15T00:16:38.460Z,2.20
2023-05-15T00:19:05.372Z,2.20
2023-05-15T00:21:32.293Z,2.50
2023-05-15T00:23:59.138Z,2.20
2023-05-15T00:26:26.309Z,2.40
2023-05-15T00:28:53.224Z,2.40
2023-05-15T00:31:20.046Z,2.40
2023-05-15T00:33:47.542Z,2.70
2023-05-15T00:36:14.411Z,2.20
2023-05-15T00:38:41.391Z,2.40
2023-05-15T00:41:08.197Z,2.40
2023-05-15T00:43:36.462Z,2.40
2023-05-15T00:46:03.300Z,2.30
2023-05-15T00:48:30.430Z,2.50
2023-05-15T00:50:57.811Z,2.40
2023-05-15T00:53:24.786Z,2.30
2023-05-15T00:55:51.720Z,2.30
2023-05-15T00:58:18.767Z,2.50
2023-05-15T01:00:45.727Z,2.70
2023-05-15T01:03:12.578Z,2.50
2023-05-15T01:05:39.459Z,2.40
2023-05-15T01:08:34.125Z,2.30
2023-05-15T01:11:00.991Z,2.40
2023-05-15T01:13:27.734Z,2.20
2023-05-15T01:15:55.074Z,2.40
2023-05-15T01:18:22.167Z,2.50
2023-05-15T01:21:01.340Z,2.30
2023-05-15T01:23:50.253Z,2.10
2023-05-15T01:26:23.241Z,2.50
2023-05-15T01:28:55.264Z,2.20
2023-05-15T01:31:22.628Z,2.20
2023-05-15T01:33:51.716Z,2.70
2023-05-15T01:36:41.807Z,2.50
2023-05-15T01:39:08.615Z,2.90
2023-05-15T01:41:40.254Z,2.50
2023-05-15T01:46:39.652Z,2.40
2023-05-15T01:49:06.528Z,2.20
2023-05-15T01:51:33.411Z,2.20
2023-05-15T01:54:00.360Z,2.40
2023-05-15T01:56:27.226Z,2.40
2023-05-15T01:58:54.157Z,2.20
2023-05-15T02:01:21.096Z,2.30
2023-05-15T02:03:48.315Z,2.70
2023-05-15T02:06:15.092Z,2.40
2023-05-15T02:08:42.037Z,2.60
2023-05-15T02:11:08.979Z,2.40
2023-05-15T02:13:36.350Z,2.30
2023-05-15T02:16:03.326Z,2.10
2023-05-15T02:18:30.316Z,2.40
2023-05-15T02:20:58.076Z,2.50
2023-05-15T02:23:24.930Z,2.30
2023-05-15T02:26:21.485Z,2.60
2023-05-15T02:28:54.728Z,2.30
2023-05-15T02:31:34.180Z,2.40
2023-05-15T02:34:29.321Z,2.50
2023-05-15T02:36:56.253Z,2.50
2023-05-15T02:39:25.059Z,2.40
2023-05-15T02:41:52.514Z,2.40
2023-05-15T02:44:20.374Z,2.50
2023-05-15T02:46:47.960Z,2.30
2023-05-15T02:49:15.070Z,2.50
2023-05-15T02:51:42.035Z,2.40
2023-05-15T02:54:09.723Z,2.50
2023-05-15T02:56:36.737Z,2.70
2023-05-15T02:59:03.690Z,2.40
2023-05-15T03:01:30.489Z,2.50
2023-05-15T03:03:57.287Z,2.50
2023-05-15T03:06:24.219Z,2.40
2023-05-15T03:08:51.049Z,2.30
2023-05-15T03:11:19.322Z,2.50
2023-05-15T03:13:46.257Z,2.70
2023-05-15T03:16:12.981Z,2.30
2023-05-15T03:18:40.172Z,3.00
2023-05-15T03:21:07.098Z,2.80
2023-05-15T03:23:35.282Z,2.70
2023-05-15T03:26:04.058Z,3.00
2023-05-15T03:28:30.973Z,2.70
2023-05-15T03:30:57.881Z,2.90
2023-05-15T03:33:25.439Z,3.00
2023-05-15T03:35:52.898Z,2.60
2023-05-15T03:38:20.148Z,2.50
2023-05-15T03:40:48.423Z,2.70
2023-05-15T03:43:17.253Z,2.60
2023-05-15T03:45:44.076Z,2.90
2023-05-15T03:48:10.947Z,3.00
2023-05-15T03:50:39.260Z,2.40
2023-05-15T03:53:06.138Z,2.90
2023-05-15T03:55:32.862Z,2.80
2023-05-15T03:57:59.710Z,2.70
2023-05-15T04:00:27.751Z,2.40
2023-05-15T04:02:54.745Z,2.80
2023-05-15T04:05:21.961Z,2.70
2023-05-15T04:07:49.093Z,2.70
2023-05-15T04:10:15.928Z,2.70
2023-05-15T04:12:42.858Z,2.60
2023-05-15T04:15:16.984Z,2.80
2023-05-15T04:17:44.800Z,2.60
2023-05-15T04:20:13.140Z,2.30
2023-05-15T04:22:39.988Z,2.60
2023-05-15T04:25:08.062Z,3.00
2023-05-15T04:27:36.258Z,2.60
2023-05-15T04:30:04.053Z,2.50
2023-05-15T04:32:31.108Z,2.50
2023-05-15T04:34:57.918Z,2.70
2023-05-15T04:37:24.824Z,2.30
2023-05-15T04:39:51.658Z,2.60
2023-05-15T04:42:18.404Z,2.30
2023-05-15T04:44:45.170Z,2.30
2023-05-15T04:47:12.773Z,2.40
2023-05-15T04:49:41.067Z,2.20
2023-05-15T04:52:08.020Z,2.20
2023-05-15T04:54:35.082Z,2.10
2023-05-15T04:57:02.136Z,2.60
2023-05-15T04:59:29.035Z,2.20
2023-05-15T05:01:56.056Z,2.20
2023-05-15T05:04:23.397Z,2.20
2023-05-15T05:06:50.435Z,2.10
2023-05-15T05:09:19.022Z,2.00
2023-05-15T05:11:46.569Z,2.20
2023-05-15T05:14:14.511Z,2.00
2023-05-15T05:16:41.969Z,2.10
2023-05-15T05:19:08.705Z,2.40
2023-05-15T05:21:35.757Z,2.20
2023-05-15T05:24:02.725Z,2.20
2023-05-15T05:26:29.575Z,2.70
2023-05-15T05:28:56.698Z,2.40
2023-05-15T05:31:24.554Z,2.20
2023-05-15T05:33:52.748Z,2.20
2023-05-15T05:36:19.807Z,2.50
2023-05-15T05:38:46.912Z,2.20
2023-05-15T05:41:13.779Z,2.10
2023-05-15T05:43:40.506Z,2.30
2023-05-15T05:46:07.344Z,2.20
2023-05-15T05:48:34.215Z,2.50
2023-05-15T05:51:01.082Z,2.10
2023-05-15T05:53:27.996Z,2.40
2023-05-15T05:55:54.767Z,2.70
2023-05-15T05:58:25.487Z,2.80
2023-05-15T06:03:20.739Z,2.70
2023-05-15T06:05:48.704Z,2.60
2023-05-15T06:08:15.835Z,2.90
2023-05-15T06:10:45.841Z,3.30
2023-05-15T06:13:14.857Z,4.10
2023-05-15T06:15:42.183Z,4.90
2023-05-15T06:18:09.045Z,4.10
2023-05-15T06:20:36.402Z,3.60
2023-05-15T06:23:03.928Z,2.60
2023-05-15T06:25:31.407Z,2.50
2023-05-15T06:27:58.536Z,2.60
2023-05-15T06:30:25.666Z,2.70
2023-05-15T06:32:53.607Z,2.70
2023-05-15T06:35:20.991Z,2.50
2023-05-15T06:37:50.387Z,3.10
2023-05-15T06:40:17.312Z,3.00
2023-05-15T06:42:44.127Z,2.80
2023-05-15T06:45:11.453Z,2.60
2023-05-15T06:47:38.274Z,2.80
2023-05-15T06:50:05.937Z,2.40
2023-05-15T06:52:32.804Z,2.10
2023-05-15T06:54:59.637Z,2.80
2023-05-15T06:57:26.424Z,2.90
2023-05-15T06:59:53.380Z,2.70
2023-05-15T07:02:20.381Z,3.00
2023-05-15T07:04:47.150Z,2.80
2023-05-15T07:07:14.403Z,2.80
2023-05-15T07:09:41.383Z,2.70
2023-05-15T07:12:08.939Z,3.10
2023-05-15T07:14:36.059Z,2.70
2023-05-15T07:17:03.001Z,2.60
2023-05-15T07:19:30.089Z,2.70
2023-05-15T07:21:57.015Z,2.60
2023-05-15T07:24:23.837Z,2.60
2023-05-15T07:26:58.305Z,3.10
2023-05-15T07:29:25.923Z,2.30
2023-05-15T07:31:53.262Z,2.70
2023-05-15T07:34:20.146Z,2.50
2023-05-15T07:36:47.073Z,2.90
2023-05-15T07:39:13.841Z,2.80
2023-05-15T07:41:40.894Z,2.30
2023-05-15T07:44:07.772Z,2.80
2023-05-15T07:46:35.189Z,2.10
2023-05-15T07:49:02.427Z,2.20
2023-05-15T07:51:29.300Z,2.60
2023-05-15T07:53:56.216Z,3.30
2023-05-15T07:56:23.337Z,2.70
2023-05-15T07:58:50.519Z,2.20
2023-05-15T08:01:17.348Z,2.70
2023-05-15T08:03:44.362Z,2.50
2023-05-15T08:06:11.272Z,2.80
2023-05-15T08:08:38.451Z,2.90
2023-05-15T08:11:05.646Z,2.70
2023-05-15T08:13:32.449Z,1.80
2023-05-15T08:15:59.361Z,2.60
2023-05-15T08:18:26.761Z,2.50
2023-05-15T08:20:53.661Z,2.70
2023-05-15T08:23:20.500Z,3.20
2023-05-15T08:25:47.297Z,2.80
2023-05-15T08:28:14.255Z,2.70
2023-05-15T08:30:41.252Z,2.20
2023-05-15T08:33:08.235Z,2.30
2023-05-15T08:35:35.399Z,2.30
2023-05-15T08:38:03.347Z,2.80
2023-05-15T08:40:38.945Z,2.60
2023-05-15T08:43:13.920Z,2.00
2023-05-15T08:45:41.578Z,2.10
2023-05-15T08:48:14.818Z,2.30
2023-05-15T08:50:41.906Z,2.20
2023-05-15T08:53:08.752Z,2.20
2023-05-15T08:55:35.602Z,2.30
2023-05-15T08:58:02.328Z,2.30
2023-05-15T09:00:29.288Z,2.20
2023-05-15T09:02:59.258Z,2.40
2023-05-15T09:05:26.302Z,2.30
2023-05-15T09:07:54.290Z,2.40
2023-05-15T09:10:21.389Z,2.10
2023-05-15T09:12:48.496Z,2.90
2023-05-15T09:18:07.258Z,2.20
2023-05-15T09:20:35.749Z,2.10
2023-05-15T09:23:03.926Z,2.10
2023-05-15T09:25:52.960Z,2.10
2023-05-15T09:28:30.360Z,2.50
2023-05-15T09:31:01.553Z,2.00
2023-05-15T09:33:31.603Z,1.90
2023-05-15T09:35:58.496Z,2.30
2023-05-15T09:38:25.318Z,1.70
2023-05-15T09:41:08.993Z,2.00
2023-05-15T09:43:36.750Z,2.30
2023-05-15T09:46:04.004Z,2.00
2023-05-15T09:48:31.057Z,2.30
2023-05-15T09:50:58.089Z,2.10
2023-05-15T09:53:24.918Z,2.30
2023-05-15T09:55:51.883Z,2.20
2023-05-15T09:58:19.172Z,2.30
2023-05-15T10:00:48.502Z,2.00
2023-05-15T10:03:18.482Z,2.20
2023-05-15T10:05:45.391Z,2.10
2023-05-15T10:08:14.246Z,2.10
2023-05-15T10:10:41.106Z,2.00
2023-05-15T10:13:09.355Z,2.00
2023-05-15T10:15:36.326Z,2.20
2023-05-15T10:18:03.581Z,1.80
2023-05-15T10:20:31.386Z,2.30
2023-05-15T10:22:59.104Z,2.10
2023-05-15T10:25:45.475Z,2.50
2023-05-15T10:28:12.472Z,2.20
2023-05-15T10:30:39.448Z,2.30
2023-05-15T10:33:07.014Z,2.10
2023-05-15T10:35:34.441Z,2.00
2023-05-15T10:38:03.441Z,2.00
2023-05-15T10:40:32.158Z,2.70
2023-05-15T10:42:59.622Z,1.80
2023-05-15T10:45:26.756Z,2.10
2023-05-15T10:47:53.365Z,2.70
2023-05-15T10:50:20.481Z,1.70
2023-05-15T10:52:52.210Z,1.90
2023-05-15T10:55:19.111Z,2.10
2023-05-15T10:57:46.701Z,2.50
2023-05-15T11:00:22.844Z,2.00
2023-05-15T11:02:52.957Z,2.40
2023-05-15T11:05:19.791Z,2.40
2023-05-15T11:08:25.641Z,2.10
2023-05-15T11:10:53.399Z,1.90
2023-05-15T11:13:20.764Z,2.30
2023-05-15T11:15:47.803Z,2.20
2023-05-15T11:18:14.879Z,2.40
2023-05-15T11:20:51.434Z,2.10
2023-05-15T11:23:21.534Z,2.00
2023-05-15T11:25:58.085Z,2.50
2023-05-15T11:28:25.355Z,1.80
2023-05-15T11:30:52.376Z,1.80
2023-05-15T11:33:19.623Z,2.00
2023-05-15T11:35:47.091Z,2.30
2023-05-15T11:38:14.516Z,1.90
2023-05-15T11:40:58.066Z,2.30
2023-05-15T11:43:32.133Z,1.80
2023-05-15T11:46:06.794Z,1.70
2023-05-15T11:48:38.944Z,2.40
2023-05-15T11:51:07.724Z,2.20
2023-05-15T11:53:34.565Z,1.90
2023-05-15T11:56:01.609Z,1.90
2023-05-15T11:58:29.253Z,2.00
2023-05-15T12:00:56.962Z,2.20
2023-05-15T12:03:25.357Z,1.80
2023-05-15T12:05:59.063Z,2.30
2023-05-15T12:08:33.687Z,1.80
2023-05-15T12:11:01.348Z,2.30
2023-05-15T12:13:30.005Z,2.10
2023-05-15T12:15:57.108Z,2.20
2023-05-15T12:18:24.130Z,1.80
2023-05-15T12:20:52.015Z,2.00
2023-05-15T12:23:21.915Z,2.30
2023-05-15T12:25:49.187Z,2.40
2023-05-15T12:28:16.547Z,2.00
2023-05-15T12:30:43.344Z,2.60
2023-05-15T12:33:10.203Z,2.70
2023-05-15T12:35:41.093Z,2.80
2023-05-15T12:38:07.885Z,2.80
2023-05-15T12:40:35.853Z,2.30
2023-05-15T12:43:06.367Z,2.60
2023-05-15T12:45:34.679Z,2.30
2023-05-15T12:48:01.690Z,2.60
2023-05-15T12:50:32.116Z,1.80
2023-05-15T12:53:01.819Z,2.80
2023-05-15T12:55:32.877Z,2.70
2023-05-15T12:58:10.474Z,2.60
2023-05-15T13:00:38.879Z,2.30
2023-05-15T13:03:07.726Z,2.50
2023-05-15T13:05:35.142Z,2.10
2023-05-15T13:08:04.396Z,2.00
2023-05-15T13:10:32.036Z,2.50
2023-05-15T13:12:59.150Z,2.70
2023-05-15T13:15:37.130Z,2.30
2023-05-15T13:18:08.487Z,2.10
2023-05-15T13:20:38.553Z,2.00
2023-05-15T13:23:05.540Z,2.40
2023-05-15T13:25:32.997Z,2.40
2023-05-15T13:28:00.699Z,2.60
2023-05-15T13:30:28.012Z,2.60
2023-05-15T13:32:55.962Z,2.20
2023-05-15T13:35:23.092Z,2.00
2023-05-15T13:37:49.876Z,2.60
2023-05-15T13:40:16.628Z,2.30
2023-05-15T13:42:43.974Z,3.20
2023-05-15T13:45:12.680Z,2.20
2023-05-15T13:47:40.035Z,1.90
2023-05-15T13:50:08.222Z,2.60
2023-05-15T13:52:35.566Z,2.50
2023-05-15T13:55:03.772Z,2.30
2023-05-15T13:57:31.449Z,2.20
2023-05-15T13:59:58.455Z,2.30
2023-05-15T14:02:26.457Z,2.10
2023-05-15T14:04:53.502Z,1.90
2023-05-15T14:07:23.476Z,2.10
2023-05-15T14:09:50.943Z,2.30
2023-05-15T14:12:18.131Z,2.20
2023-05-15T14:14:45.432Z,2.50
2023-05-15T14:17:12.905Z,2.20
2023-05-15T14:19:41.356Z,2.20
2023-05-15T14:22:08.775Z,2.20
2023-05-15T14:24:35.753Z,2.20
2023-05-15T14:27:05.751Z,2.40
2023-05-15T14:29:32.548Z,2.00
2023-05-15T14:31:59.692Z,2.20
2023-05-15T14:34:26.484Z,2.50
2023-05-15T14:36:53.162Z,2.30
2023-05-15T14:39:20.015Z,2.30
2023-05-15T14:41:47.167Z,2.10
2023-05-15T14:44:13.919Z,1.90
2023-05-15T14:46:41.665Z,2.00
2023-05-15T14:49:08.540Z,2.10
2023-05-15T14:51:35.571Z,2.20
2023-05-15T14:54:04.222Z,2.10
2023-05-15T14:56:31.440Z,2.30
2023-05-15T14:58:58.297Z,2.10
2023-05-15T15:01:25.215Z,2.10
2023-05-15T15:03:52.406Z,2.30
2023-05-15T15:06:19.960Z,2.10
2023-05-15T15:08:46.805Z,2.10
2023-05-15T15:11:14.112Z,2.40
2023-05-15T15:21:25.426Z,2.20
2023-05-15T15:23:52.447Z,2.20
2023-05-15T15:26:19.296Z,2.00
2023-05-15T15:28:46.250Z,2.20
2023-05-15T15:31:12.985Z,2.70
2023-05-15T15:33:40.045Z,2.50
2023-05-15T15:36:06.882Z,2.10
2023-05-15T15:38:34.670Z,2.50
2023-05-15T15:41:03.325Z,2.90
2023-05-15T15:43:30.080Z,2.70
2023-05-15T15:45:56.925Z,2.50
2023-05-15T15:48:23.968Z,2.40
2023-05-15T15:50:52.146Z,3.10
2023-05-15T15:53:19.041Z,2.80
2023-05-15T15:55:47.164Z,2.70
2023-05-15T15:58:14.739Z,2.80
2023-05-15T16:00:41.592Z,2.70
2023-05-15T16:03:08.521Z,2.70
2023-05-15T16:05:35.667Z,2.40
2023-05-15T16:08:02.488Z,2.50
2023-05-15T16:10:29.417Z,2.70
2023-05-15T16:12:56.930Z,2.50
2023-05-15T16:15:24.331Z,2.80
2023-05-15T16:17:52.902Z,3.10
2023-05-15T16:20:20.494Z,2.40
2023-05-15T16:22:47.359Z,3.10
2023-05-15T16:25:14.144Z,3.10
2023-05-15T16:27:40.978Z,3.20
2023-05-15T16:30:09.402Z,3.50
2023-05-15T16:32:36.364Z,3.20
2023-05-15T16:35:04.017Z,3.00
2023-05-15T16:37:30.797Z,3.10
2023-05-15T16:39:57.669Z,2.80
2023-05-15T16:42:25.272Z,3.50
2023-05-15T16:44:51.982Z,3.70
2023-05-15T16:47:18.706Z,2.70
2023-05-15T16:49:47.606Z,3.20
2023-05-15T16:52:16.186Z,3.50
2023-05-15T16:54:43.086Z,3.40
2023-05-15T16:57:10.075Z,3.40
2023-05-15T16:59:37.138Z,3.70
2023-05-15T17:02:04.157Z,3.30
2023-05-15T17:04:34.936Z,3.30
2023-05-15T17:07:01.688Z,3.10
2023-05-15T17:09:28.495Z,4.50
2023-05-15T17:11:55.274Z,5.30
2023-05-15T17:14:22.686Z,4.90
2023-05-15T17:16:49.457Z,4.20
2023-05-15T17:19:16.574Z,3.90
2023-05-15T17:21:44.804Z,3.50
2023-05-15T17:24:11.694Z,3.60
2023-05-15T17:26:38.480Z,2.90
2023-05-15T17:29:05.498Z,3.70
2023-05-15T17:31:34.473Z,3.50
2023-05-15T17:34:01.355Z,4.10
2023-05-15T17:36:28.186Z,3.70
2023-05-15T17:38:55.092Z,3.80
2023-05-15T17:41:22.175Z,4.10
2023-05-15T17:43:49.443Z,3.50
2023-05-15T17:46:16.367Z,3.80
2023-05-15T17:48:43.395Z,3.20
2023-05-15T17:51:10.435Z,3.40
2023-05-15T17:53:37.412Z,4.10
2023-05-15T17:56:04.411Z,4.00
2023-05-15T17:58:31.377Z,4.10
2023-05-15T18:00:58.278Z,4.50
2023-05-15T18:03:25.226Z,3.70
2023-05-15T18:05:52.737Z,3.80
2023-05-15T18:08:19.481Z,4.80
2023-05-15T18:10:46.601Z,4.90
2023-05-15T18:13:13.408Z,4.40
2023-05-15T18:15:40.306Z,4.80
2023-05-15T18:18:07.134Z,5.00
2023-05-15T18:20:34.042Z,4.50
2023-05-15T18:23:01.104Z,4.20
2023-05-15T18:25:28.025Z,3.90
2023-05-15T18:27:55.919Z,4.50
2023-05-15T18:30:22.903Z,4.80
2023-05-15T18:32:49.697Z,5.80
2023-05-15T18:35:17.193Z,4.70
2023-05-15T18:37:43.980Z,5.20
2023-05-15T18:40:11.274Z,4.50
2023-05-15T18:42:38.376Z,4.90
2023-05-15T18:45:06.511Z,5.00
2023-05-15T18:47:33.331Z,6.20
2023-05-15T18:50:00.502Z,5.50
2023-05-15T18:52:27.351Z,6.70
2023-05-15T18:54:54.370Z,7.10
2023-05-15T18:57:21.137Z,6.30
2023-05-15T18:59:48.193Z,6.40
2023-05-15T19:02:15.138Z,6.30
2023-05-15T19:04:42.067Z,6.00
2023-05-15T19:07:08.798Z,5.90
2023-05-15T19:09:35.592Z,5.80
2023-05-15T19:12:02.789Z,5.40
2023-05-15T19:14:29.590Z,5.90
2023-05-15T19:16:56.522Z,5.40
2023-05-15T19:19:23.587Z,5.10
2023-05-15T19:21:52.005Z,5.00
2023-05-15T19:24:19.639Z,5.20
2023-05-15T19:26:47.334Z,5.20
2023-05-15T19:29:14.136Z,5.00
2023-05-15T19:31:41.351Z,5.10
2023-05-15T19:34:08.382Z,6.10
2023-05-15T19:36:35.256Z,5.70
2023-05-15T19:39:02.156Z,5.20
2023-05-15T19:41:29.046Z,4.90
2023-05-15T19:43:55.919Z,4.30
2023-05-15T19:46:23.014Z,4.60
2023-05-15T19:48:49.980Z,4.70
2023-05-15T19:51:16.758Z,4.80
2023-05-15T19:53:43.800Z,5.20
2023-05-15T19:56:10.578Z,4.80
2023-05-15T19:58:37.448Z,5.30
2023-05-15T20:01:04.309Z,5.80
2023-05-15T20:03:33.424Z,5.40
2023-05-15T20:06:03.730Z,5.60
2023-05-15T20:08:30.851Z,4.90
2023-05-15T20:10:57.701Z,5.50
2023-05-15T20:13:24.698Z,5.90
2023-05-15T20:15:56.866Z,5.30
2023-05-15T20:18:25.062Z,4.90
2023-05-15T20:20:53.037Z,4.80
2023-05-15T20:23:20.790Z,5.10
2023-05-15T20:25:48.676Z,5.10
2023-05-15T20:28:15.636Z,5.70
2023-05-15T20:30:42.646Z,5.80
2023-05-15T20:33:09.558Z,6.40
2023-05-15T20:35:37.357Z,6.60
2023-05-15T20:38:04.671Z,6.10
2023-05-15T20:40:31.596Z,8.00
2023-05-15T20:42:59.316Z,9.50
2023-05-15T20:45:26.243Z,17.70
2023-05-15T20:47:53.082Z,24.00
2023-05-15T20:50:20.045Z,28.70
2023-05-15T21:35:10.390Z,11.70
2023-05-15T21:37:37.262Z,12.70
2023-05-15T21:40:05.071Z,11.90
2023-05-15T21:42:32.261Z,12.90
2023-05-15T21:44:59.348Z,11.10
2023-05-15T21:47:26.168Z,10.40
2023-05-15T21:49:52.941Z,10.00
2023-05-15T21:52:19.751Z,8.70
2023-05-15T21:54:46.553Z,9.20
2023-05-15T21:57:13.441Z,10.50
2023-05-15T21:59:40.265Z,9.00
2023-05-15T22:02:07.501Z,9.10
2023-05-15T22:04:34.563Z,9.00
2023-05-15T22:07:01.555Z,9.10
2023-05-15T22:09:28.446Z,9.70
2023-05-15T22:11:55.162Z,9.50
2023-05-15T22:14:21.946Z,9.00
2023-05-15T22:16:48.820Z,8.40
2023-05-15T22:19:31.619Z,8.00
2023-05-15T22:22:00.921Z,8.40
2023-05-15T22:24:27.710Z,7.60
2023-05-15T22:26:54.526Z,8.00
2023-05-15T22:29:22.109Z,7.10
2023-05-15T22:31:49.152Z,8.00
2023-05-15T22:34:16.184Z,7.60
2023-05-15T22:36:44.137Z,7.40
2023-05-15T22:39:11.627Z,7.40
2023-05-15T22:41:38.384Z,8.30
2023-05-15T22:44:05.268Z,8.80
2023-05-15T22:46:32.000Z,8.80
2023-05-15T22:49:04.304Z,8.00
2023-05-15T22:51:31.482Z,7.90
2023-05-15T22:53:58.247Z,8.20
2023-05-15T22:56:24.934Z,8.80
2023-05-15T22:58:53.033Z,8.60
2023-05-15T23:01:19.840Z,9.50
2023-05-15T23:03:46.847Z,8.90
2023-05-15T23:06:17.894Z,9.80
2023-05-15T23:08:45.097Z,9.00
2023-05-15T23:11:11.853Z,9.10
2023-05-15T23:13:38.765Z,7.70
2023-05-15T23:16:06.130Z,8.50
2023-05-15T23:18:32.990Z,7.60
2023-05-15T23:20:59.799Z,7.90
2023-05-15T23:23:26.653Z,8.20
2023-05-15T23:25:53.725Z,8.60
2023-05-15T23:28:21.336Z,7.90
2023-05-15T23:30:48.361Z,7.30
2023-05-15T23:33:15.411Z,7.20
2023-05-15T23:35:43.325Z,7.50
2023-05-15T23:38:10.605Z,7.20
2023-05-15T23:40:37.411Z,7.40
2023-05-15T23:43:04.167Z,7.20
2023-05-15T23:45:30.973Z,8.00
2023-05-15T23:47:57.784Z,7.50
2023-05-15T23:50:24.796Z,7.40
2023-05-15T23:52:51.722Z,7.50
2023-05-15T23:55:18.690Z,7.60
2023-05-15T23:57:46.950Z,7.40
